ADDS TAF Board INFO
 
 

IDs: Format: Expanded Condensed

KSEA - Seattle-Tacoma Intl, WA, US

Issued at 2101 UTC 01 Aug 2014
Time2204Z01/23Z02/00Z02/01Z02/02Z02/03Z02/04Z02/05Z02/06Z02/07Z02/08Z02/09Z02/10Z02/11Z
TypeOBSPRVLPRVLPRVLPRVLPRVLPRVLPRVLPRVLPRVLPRVLPRVLPRVLPRVL
Vis10>6>6>6>6>6>6>6>6>6>6>6>6>6
Cig200--------------------------
CoverBKNSCTSCTSCTSCTSCTSCTSCTSCTSCTSCTSCTSCTSCT
FltCat--VFRVFRVFRVFRVFRVFRVFRVFRVFRVFRVFRVFRVFR
Wx----------------------------
WDir103203203203203202020202020202020
WSpd127777788888888
WGst22--------------------------
R16/34
XWnd2-4-4-4-4-433333333
XGst4--------------------------
HWnd-12-5-5-5-5-5-8-8-8-8-8-8-8-8
HGst-22--------------------------
Raw TAF
KSEA 012101Z 0121/0224 32006KT P6SM VCTS FEW080CB BKN130 OVC200
  FM012300 32007KT P6SM SCT120 SCT200
  FM020400 02008KT P6SM SCT150


Raw METAR
KSEA 012204Z 01012G22KT 10SM FEW030 SCT090 BKN200 28/11 A2999 RMK AO2 RAE2155 P0000

TAF Board Legend

Hazard Green Yellow Red Magenta
Visibility (sm) >5 >2.99 >0.99 <=0.99
Ceiling (100 ft) >30 >9.99 >4.99 <=4.99
Wind Speed (kt) <10 <20 <30 >=30
Wind Gust (kt) <10 <20 <30 >=30
Weather No Wx Reported Light precipitation Moderate precipitation Heavy precipitation
Flight Category VFR MVFR IFR LIFR

Page loaded:  22:27 UTC  |   03:27 PM Pacific  |   04:27 PM Mountain  |   05:27 PM Central  |   06:27 PM Eastern

 

ADVISORIES

FORECASTS

FORECASTS

OBSERVATIONS

USER TOOLS

ABOUT US